createdAt,value
2022-10-11T00:01:05.520Z,100.00
2022-10-11T00:03:35.431Z,100.00
2022-10-11T00:06:06.279Z,100.00
2022-10-11T00:08:35.133Z,100.00
2022-10-11T00:11:07.090Z,100.00
2022-10-11T00:13:36.329Z,100.00
2022-10-11T00:16:09.508Z,100.00
2022-10-11T00:18:40.486Z,100.00
2022-10-11T00:21:11.889Z,100.00
2022-10-11T00:23:40.621Z,100.00
2022-10-11T00:26:11.712Z,100.00
2022-10-11T00:28:41.105Z,100.00
2022-10-11T00:31:11.422Z,100.00
2022-10-11T00:33:41.522Z,100.00
2022-10-11T00:36:13.869Z,100.00
2022-10-11T00:38:42.332Z,100.00
2022-10-11T00:41:10.816Z,100.00
2022-10-11T00:43:39.890Z,100.00
2022-10-11T00:46:31.000Z,100.00
2022-10-11T00:49:22.715Z,100.00
2022-10-11T00:52:08.379Z,100.00
2022-10-11T00:54:52.387Z,100.00
2022-10-11T00:57:36.485Z,100.00
2022-10-11T01:00:18.883Z,100.00
2022-10-11T01:03:02.485Z,100.00
2022-10-11T01:06:00.161Z,100.00
2022-10-11T01:08:42.169Z,100.00
2022-10-11T01:11:28.670Z,100.00
2022-10-11T01:47:48.879Z,100.00
2022-10-11T01:50:43.546Z,100.00
2022-10-11T01:54:00.400Z,100.00
2022-10-11T01:57:00.524Z,100.00
2022-10-11T01:59:54.796Z,100.00
2022-10-11T02:02:51.561Z,100.00
2022-10-11T02:05:40.315Z,100.00
2022-10-11T02:08:31.383Z,100.00
2022-10-11T02:11:20.426Z,100.00
2022-10-11T02:14:11.101Z,100.00
2022-10-11T02:16:56.365Z,100.00
2022-10-11T02:19:44.296Z,100.00
2022-10-11T02:22:31.719Z,100.00
2022-10-11T02:25:21.289Z,100.00
2022-10-11T02:28:10.609Z,100.00
2022-10-11T02:30:56.002Z,100.00
2022-10-11T02:33:41.919Z,100.00
2022-10-11T02:36:31.612Z,100.00
2022-10-11T02:42:03.672Z,100.00
2022-10-11T02:44:59.732Z,100.00
2022-10-11T02:47:44.456Z,100.00
2022-10-11T02:53:10.747Z,100.00
2022-10-11T02:55:54.416Z,100.00
2022-10-11T02:58:38.233Z,100.00
2022-10-11T03:01:21.112Z,100.00
2022-10-11T03:04:04.088Z,100.00
2022-10-11T03:06:47.056Z,100.00
2022-10-11T03:09:30.062Z,100.00
2022-10-11T03:12:11.070Z,100.00
2022-10-11T03:14:53.245Z,100.00
2022-10-11T03:17:37.189Z,100.00
2022-10-11T03:20:20.863Z,100.00
2022-10-11T03:23:03.505Z,100.00
2022-10-11T03:25:47.882Z,100.00
2022-10-11T03:28:31.207Z,100.00
2022-10-11T03:31:14.182Z,100.00
2022-10-11T03:33:55.254Z,100.00
2022-10-11T03:36:38.647Z,100.00
2022-10-11T03:39:19.627Z,100.00
2022-10-11T03:42:01.426Z,100.00
2022-10-11T03:44:44.352Z,100.00
2022-10-11T03:47:27.419Z,100.00
2022-10-11T03:50:11.036Z,100.00
2022-10-11T03:52:55.119Z,100.00
2022-10-11T03:55:39.566Z,100.00
2022-10-11T03:58:23.520Z,100.00
2022-10-11T04:01:07.220Z,100.00
2022-10-11T04:03:49.071Z,100.00
2022-10-11T04:06:32.160Z,100.00
2022-10-11T04:09:14.687Z,100.00
2022-10-11T04:11:57.741Z,100.00
2022-10-11T04:14:40.754Z,100.00
2022-10-11T04:17:22.113Z,100.00
2022-10-11T04:20:05.836Z,100.00
2022-10-11T04:22:49.751Z,100.00
2022-10-11T04:25:30.794Z,100.00
2022-10-11T04:28:14.246Z,100.00
2022-10-11T04:30:57.643Z,100.00
2022-10-11T04:36:23.226Z,100.00
2022-10-11T04:39:06.618Z,100.00
2022-10-11T04:41:49.263Z,100.00
2022-10-11T04:47:15.379Z,100.00
2022-10-11T04:52:41.341Z,100.00
2022-10-11T04:55:22.231Z,100.00
2022-10-11T04:58:05.672Z,100.00
2022-10-11T05:04:04.941Z,100.00
2022-10-11T05:20:20.410Z,100.00
2022-10-11T05:23:03.309Z,100.00
2022-10-11T05:25:46.373Z,100.00
2022-10-11T05:28:29.542Z,100.00
2022-10-11T05:31:12.963Z,100.00
2022-10-11T05:33:57.034Z,100.00
2022-10-11T05:36:40.005Z,100.00
2022-10-11T05:39:23.054Z,100.00
2022-10-11T05:42:09.730Z,100.00
2022-10-11T05:44:53.776Z,100.00
2022-10-11T05:50:19.653Z,100.00
2022-10-11T05:55:47.399Z,100.00
2022-10-11T06:06:40.654Z,100.00
2022-10-11T06:09:24.262Z,100.00
2022-10-11T06:12:07.708Z,100.00
2022-10-11T06:15:18.494Z,100.00
2022-10-11T06:18:13.926Z,100.00
2022-10-11T06:21:13.249Z,100.00
2022-10-11T06:24:12.465Z,100.00
2022-10-11T06:27:18.293Z,100.00
2022-10-11T06:33:22.678Z,100.00
2022-10-11T06:36:20.307Z,100.00
2022-10-11T06:39:14.747Z,100.00
2022-10-11T06:42:14.792Z,100.00
2022-10-11T06:45:20.500Z,100.00
2022-10-11T06:48:20.425Z,100.00
2022-10-11T06:51:28.799Z,100.00
2022-10-11T06:54:09.146Z,100.00
2022-10-11T06:56:51.028Z,100.00
2022-10-11T06:59:50.885Z,100.00
2022-10-11T07:03:03.735Z,100.00
2022-10-11T07:06:03.055Z,100.00
2022-10-11T07:09:04.282Z,100.00
2022-10-11T07:12:00.997Z,100.00
2022-10-11T07:14:58.518Z,100.00
2022-10-11T07:17:59.331Z,100.00
2022-10-11T07:21:04.490Z,100.00
2022-10-11T07:24:10.898Z,100.00
2022-10-11T07:27:10.104Z,100.00
2022-10-11T07:30:21.410Z,100.00
2022-10-11T07:33:25.255Z,100.00
2022-10-11T07:36:20.546Z,100.00
2022-10-11T07:39:23.557Z,100.00
2022-10-11T07:42:51.823Z,100.00
2022-10-11T07:45:54.556Z,100.00
2022-10-11T07:48:50.277Z,100.00
2022-10-11T07:51:50.861Z,100.00
2022-10-11T07:54:51.488Z,100.00
2022-10-11T07:57:57.987Z,100.00
2022-10-11T08:00:56.344Z,100.00
2022-10-11T08:03:56.998Z,100.00
2022-10-11T08:06:53.691Z,100.00
2022-10-11T08:09:56.931Z,100.00
2022-10-11T08:12:57.707Z,100.00
2022-10-11T08:15:55.213Z,100.00
2022-10-11T08:18:57.248Z,100.00
2022-10-11T08:21:55.024Z,100.00
2022-10-11T08:24:52.403Z,100.00
2022-10-11T08:27:52.798Z,100.00
2022-10-11T08:30:51.582Z,100.00
2022-10-11T08:33:56.692Z,100.00
2022-10-11T08:37:11.369Z,100.00
2022-10-11T08:40:17.397Z,100.00
2022-10-11T08:43:34.020Z,100.00
2022-10-11T08:46:38.156Z,100.00
2022-10-11T08:49:38.494Z,100.00
2022-10-11T08:52:44.036Z,100.00
2022-10-11T08:55:45.996Z,100.00
2022-10-11T08:58:18.747Z,100.00
2022-10-11T09:00:49.962Z,100.00
2022-10-11T09:03:28.507Z,100.00
2022-10-11T09:06:09.968Z,100.00
2022-10-11T09:08:56.693Z,100.00
2022-10-11T09:11:37.636Z,100.00
2022-10-11T09:14:26.289Z,100.00
2022-10-11T09:17:04.664Z,100.00
2022-10-11T09:19:54.119Z,100.00
2022-10-11T09:22:30.864Z,100.00
2022-10-11T09:25:19.575Z,100.00
2022-10-11T09:28:02.974Z,100.00
2022-10-11T09:30:33.282Z,100.00
2022-10-11T09:33:12.108Z,100.00
2022-10-11T09:35:44.191Z,88.03
2022-10-11T09:38:22.633Z,79.23
2022-10-11T09:41:02.799Z,71.43
2022-10-11T09:43:32.889Z,68.91
2022-10-11T09:46:01.409Z,67.40
2022-10-11T09:48:38.616Z,63.44
2022-10-11T09:51:14.344Z,61.08
2022-10-11T09:53:55.173Z,58.10
2022-10-11T09:56:25.056Z,58.04
2022-10-11T09:59:17.776Z,55.16
2022-10-11T10:01:46.437Z,52.19
2022-10-11T10:04:18.391Z,50.42
2022-10-11T10:06:47.060Z,52.43
2022-10-11T10:09:30.257Z,51.71
2022-10-11T10:11:59.407Z,49.50
2022-10-11T10:14:31.626Z,50.41
2022-10-11T10:17:03.939Z,49.70
2022-10-11T10:19:44.907Z,50.06
2022-10-11T10:22:20.337Z,48.00
2022-10-11T10:24:50.606Z,49.84
2022-10-11T10:27:24.868Z,48.65
2022-10-11T10:30:17.163Z,48.34
2022-10-11T10:32:54.571Z,48.69
2022-10-11T10:35:34.161Z,46.12
2022-10-11T10:38:13.447Z,47.67
2022-10-11T10:40:46.455Z,46.56
2022-10-11T10:43:17.569Z,48.04
2022-10-11T10:46:03.896Z,47.79
2022-10-11T10:49:12.045Z,45.64
2022-10-11T10:51:40.690Z,45.66
2022-10-11T10:54:18.937Z,45.68
2022-10-11T10:56:53.673Z,46.95
2022-10-11T10:59:48.631Z,46.82
2022-10-11T11:02:39.756Z,46.69
2022-10-11T11:05:18.984Z,44.56
2022-10-11T11:07:52.030Z,45.27
2022-10-11T11:10:24.276Z,46.55
2022-10-11T11:13:06.538Z,45.60
2022-10-11T11:15:42.018Z,43.70
2022-10-11T11:18:28.663Z,46.49
2022-10-11T11:21:14.080Z,44.80
2022-10-11T11:23:50.389Z,44.16
2022-10-11T11:26:26.637Z,42.97
2022-10-11T11:29:18.816Z,42.38
2022-10-11T11:32:07.636Z,42.93
2022-10-11T11:34:42.889Z,45.14
2022-10-11T11:37:23.593Z,46.42
2022-10-11T11:39:57.116Z,44.34
2022-10-11T11:42:31.313Z,44.50
2022-10-11T11:45:06.775Z,42.23
2022-10-11T11:47:39.336Z,43.20
2022-10-11T11:50:22.787Z,42.72
2022-10-11T11:52:54.071Z,45.26
2022-10-11T11:55:30.990Z,43.46
2022-10-11T11:58:10.233Z,43.44
2022-10-11T12:00:50.296Z,45.15
2022-10-11T12:03:22.703Z,43.68
2022-10-11T12:06:24.308Z,44.69
2022-10-11T12:09:03.732Z,45.98
2022-10-11T12:11:43.352Z,47.47
2022-10-11T12:14:37.054Z,47.16
2022-10-11T12:17:15.856Z,47.77
2022-10-11T12:20:00.770Z,45.35
2022-10-11T12:22:53.108Z,47.58
2022-10-11T12:26:08.398Z,51.58
2022-10-11T12:29:00.993Z,60.60
2022-10-11T12:31:32.498Z,63.65
2022-10-11T12:34:35.759Z,66.51
2022-10-11T12:37:37.883Z,69.57
2022-10-11T12:40:35.215Z,73.33
2022-10-11T12:43:36.280Z,75.21
2022-10-11T12:46:49.114Z,81.09
2022-10-11T12:49:41.668Z,91.28
2022-10-11T12:52:25.516Z,95.12
2022-10-11T12:55:07.757Z,99.21
2022-10-11T12:58:10.010Z,100.00
2022-10-11T13:00:46.825Z,100.00
2022-10-11T13:03:32.642Z,100.00
2022-10-11T13:06:02.139Z,100.00
2022-10-11T13:08:33.887Z,100.00
2022-10-11T13:11:04.571Z,100.00
2022-10-11T13:13:40.106Z,99.59
2022-10-11T13:16:13.940Z,97.29
2022-10-11T13:18:44.916Z,93.46
2022-10-11T13:21:23.005Z,89.33
2022-10-11T13:23:59.836Z,89.95
2022-10-11T13:26:30.132Z,89.24
2022-10-11T13:29:06.284Z,89.68
2022-10-11T13:31:34.746Z,87.21
2022-10-11T13:34:03.250Z,92.20
2022-10-11T13:36:32.954Z,93.06
2022-10-11T13:39:02.357Z,93.88
2022-10-11T13:41:35.072Z,93.80
2022-10-11T13:44:05.495Z,95.70
2022-10-11T13:46:35.405Z,92.86
2022-10-11T13:49:06.735Z,90.47
2022-10-11T13:51:38.065Z,89.93
2022-10-11T13:54:13.115Z,89.55
2022-10-11T13:56:48.158Z,90.58
2022-10-11T13:59:21.260Z,91.15
2022-10-11T14:01:53.010Z,92.81
2022-10-11T14:04:24.055Z,90.15
2022-10-11T14:06:59.241Z,90.79
2022-10-11T14:09:30.295Z,92.72
2022-10-11T14:12:29.842Z,95.85
2022-10-11T14:15:00.462Z,95.91
2022-10-11T14:17:41.390Z,97.86
2022-10-11T14:20:18.990Z,99.65
2022-10-11T14:22:47.536Z,100.00
2022-10-11T14:25:16.144Z,99.96
2022-10-11T14:27:46.143Z,100.00
2022-10-11T14:30:27.474Z,98.89
2022-10-11T14:32:59.039Z,98.02
2022-10-11T14:35:32.209Z,97.36
2022-10-11T14:38:00.783Z,97.88
2022-10-11T14:40:31.629Z,95.20
2022-10-11T14:43:00.488Z,95.84
2022-10-11T14:45:30.356Z,99.02
2022-10-11T14:47:59.187Z,99.40
2022-10-11T14:50:36.715Z,98.24
2022-10-11T14:53:06.265Z,97.76
2022-10-11T14:55:35.755Z,97.86
2022-10-11T14:58:04.473Z,97.22
2022-10-11T15:00:35.239Z,96.96
2022-10-11T15:03:04.982Z,95.40
2022-10-11T15:05:34.374Z,99.56
2022-10-11T15:08:03.569Z,99.83
2022-10-11T15:10:36.513Z,99.04
2022-10-11T15:13:07.157Z,96.72
2022-10-11T15:15:41.095Z,95.22
2022-10-11T15:18:13.386Z,94.60
2022-10-11T15:20:44.597Z,92.06
2022-10-11T15:23:13.160Z,93.48
2022-10-11T15:25:42.556Z,91.83
2022-10-11T15:28:21.357Z,92.10
2022-10-11T15:30:51.222Z,92.65
2022-10-11T15:33:19.663Z,90.25
2022-10-11T15:35:48.252Z,88.73
2022-10-11T15:38:19.694Z,89.12
2022-10-11T15:40:49.537Z,90.40
2022-10-11T15:43:24.219Z,91.28
2022-10-11T15:45:55.065Z,90.89
2022-10-11T15:48:26.510Z,90.18
2022-10-11T15:50:55.745Z,91.68
2022-10-11T15:53:26.307Z,96.07
2022-10-11T15:55:56.234Z,100.00
2022-10-11T15:58:26.468Z,100.00
2022-10-11T16:00:58.673Z,100.00
2022-10-11T16:03:30.507Z,100.00
2022-10-11T16:06:04.901Z,100.00
2022-10-11T16:08:33.988Z,100.00
2022-10-11T16:11:02.870Z,100.00
2022-10-11T16:13:31.542Z,100.00
2022-10-11T16:16:02.289Z,100.00
2022-10-11T16:18:35.091Z,100.00
2022-10-11T16:21:07.758Z,100.00
2022-10-11T16:23:36.703Z,100.00
2022-10-11T16:26:08.133Z,100.00
2022-10-11T16:28:37.908Z,100.00
2022-10-11T16:31:13.248Z,100.00
2022-10-11T16:33:46.631Z,100.00
2022-10-11T16:36:34.293Z,100.00
2022-10-11T16:39:05.397Z,100.00
2022-10-11T16:41:33.846Z,100.00
2022-10-11T16:44:02.511Z,100.00
2022-10-11T16:46:33.020Z,100.00
2022-10-11T16:49:01.539Z,100.00
2022-10-11T16:51:30.266Z,100.00
2022-10-11T16:53:58.981Z,100.00
2022-10-11T16:56:27.729Z,100.00
2022-10-11T16:58:59.482Z,100.00
2022-10-11T17:01:28.152Z,100.00
2022-10-11T17:03:58.331Z,100.00
2022-10-11T17:06:27.150Z,100.00
2022-10-11T17:08:56.350Z,100.00
2022-10-11T17:11:25.353Z,100.00
2022-10-11T17:13:54.512Z,100.00
2022-10-11T17:16:24.027Z,100.00
2022-10-11T17:18:52.514Z,100.00
2022-10-11T17:21:23.170Z,100.00
2022-10-11T17:23:51.653Z,100.00
2022-10-11T17:26:21.854Z,100.00
2022-10-11T17:28:50.672Z,100.00
2022-10-11T17:31:19.652Z,100.00
2022-10-11T17:33:48.459Z,100.00
2022-10-11T17:36:22.531Z,100.00
2022-10-11T17:38:52.092Z,100.00
2022-10-11T17:41:21.518Z,100.00
2022-10-11T17:43:49.963Z,100.00
2022-10-11T17:46:19.259Z,100.00
2022-10-11T17:48:47.761Z,100.00
2022-10-11T17:51:18.069Z,100.00
2022-10-11T17:53:50.550Z,100.00
2022-10-11T17:56:26.736Z,100.00
2022-10-11T17:58:58.249Z,100.00
2022-10-11T18:01:30.220Z,100.00
2022-10-11T18:04:01.179Z,100.00
2022-10-11T18:06:31.568Z,100.00
2022-10-11T18:09:04.123Z,100.00
2022-10-11T18:11:32.794Z,100.00
2022-10-11T18:14:01.734Z,100.00
2022-10-11T18:16:31.807Z,100.00
2022-10-11T18:19:00.894Z,100.00
2022-10-11T18:21:34.369Z,100.00
2022-10-11T18:24:07.877Z,100.00
2022-10-11T18:26:36.352Z,100.00
2022-10-11T18:29:05.910Z,100.00
2022-10-11T18:31:36.006Z,100.00
2022-10-11T18:34:05.985Z,100.00
2022-10-11T18:36:35.127Z,100.00
2022-10-11T18:39:09.106Z,100.00
2022-10-11T18:41:40.140Z,100.00
2022-10-11T18:44:11.048Z,100.00
2022-10-11T18:46:39.557Z,100.00
2022-10-11T18:49:08.766Z,100.00
2022-10-11T18:51:39.165Z,100.00
2022-10-11T18:54:14.012Z,100.00
2022-10-11T18:56:45.488Z,100.00
2022-10-11T18:59:14.077Z,100.00
2022-10-11T19:01:44.595Z,100.00
2022-10-11T19:04:16.991Z,100.00
2022-10-11T19:06:48.097Z,100.00
2022-10-11T19:09:22.330Z,100.00
2022-10-11T19:11:51.294Z,100.00
2022-10-11T19:14:22.939Z,100.00
2022-10-11T19:16:52.771Z,100.00
2022-10-11T19:19:22.838Z,100.00
2022-10-11T19:21:51.728Z,100.00
2022-10-11T19:24:23.582Z,100.00
2022-10-11T19:26:57.233Z,100.00
2022-10-11T19:29:29.386Z,100.00
2022-10-11T19:31:59.783Z,100.00
2022-10-11T19:34:31.524Z,100.00
2022-10-11T19:37:01.345Z,100.00
2022-10-11T19:39:31.613Z,100.00
2022-10-11T19:42:00.401Z,100.00
2022-10-11T19:44:28.809Z,100.00
2022-10-11T19:47:01.452Z,100.00
2022-10-11T19:49:32.894Z,100.00
2022-10-11T19:52:01.996Z,100.00
2022-10-11T19:54:32.094Z,100.00
2022-10-11T19:57:00.522Z,100.00
2022-10-11T19:59:29.149Z,100.00
2022-10-11T20:01:57.558Z,100.00
2022-10-11T20:07:14.628Z,100.00
2022-10-11T20:09:44.614Z,100.00
2022-10-11T20:12:13.066Z,100.00
2022-10-11T20:14:41.701Z,100.00
2022-10-11T20:17:10.196Z,100.00
2022-10-11T20:19:39.026Z,100.00
2022-10-11T20:22:07.939Z,100.00
2022-10-11T20:24:36.419Z,100.00
2022-10-11T20:27:07.542Z,100.00
2022-10-11T20:29:35.987Z,100.00
2022-10-11T20:32:04.805Z,100.00
2022-10-11T20:34:33.464Z,100.00
2022-10-11T20:37:01.863Z,100.00
2022-10-11T20:39:30.592Z,100.00
2022-10-11T20:41:59.433Z,100.00
2022-10-11T20:44:29.376Z,100.00
2022-10-11T20:47:03.009Z,100.00
2022-10-11T20:49:32.413Z,100.00
2022-10-11T20:52:00.852Z,100.00
2022-10-11T20:54:30.739Z,100.00
2022-10-11T20:56:59.348Z,100.00
2022-10-11T20:59:29.225Z,100.00
2022-10-11T21:01:57.692Z,100.00
2022-10-11T21:04:26.515Z,100.00
2022-10-11T21:06:54.955Z,100.00
2022-10-11T21:09:23.538Z,100.00
2022-10-11T21:11:52.082Z,100.00
2022-10-11T21:14:20.492Z,100.00
2022-10-11T21:16:50.336Z,100.00
2022-10-11T21:19:18.819Z,100.00
2022-10-11T21:21:52.689Z,100.00
2022-10-11T21:24:22.745Z,100.00
2022-10-11T21:26:51.226Z,100.00
2022-10-11T21:29:19.694Z,100.00
2022-10-11T21:31:49.906Z,100.00
2022-10-11T21:34:18.535Z,100.00
2022-10-11T21:36:46.988Z,100.00
2022-10-11T21:39:15.485Z,100.00
2022-10-11T21:41:43.931Z,100.00
2022-10-11T21:44:12.365Z,100.00
2022-10-11T21:49:30.797Z,100.00
2022-10-11T21:51:59.414Z,100.00
2022-10-11T21:54:27.888Z,100.00
2022-10-11T21:56:56.311Z,100.00
2022-10-11T21:59:24.781Z,100.00
2022-10-11T22:01:55.045Z,100.00
2022-10-11T22:04:27.090Z,100.00
2022-10-11T22:06:56.917Z,100.00
2022-10-11T22:09:25.575Z,100.00
2022-10-11T22:11:54.051Z,100.00
2022-10-11T22:14:22.524Z,100.00
2022-10-11T22:16:50.935Z,100.00
2022-10-11T22:19:19.497Z,100.00
2022-10-11T22:21:47.941Z,100.00
2022-10-11T22:24:17.829Z,100.00
2022-10-11T22:26:46.334Z,100.00
2022-10-11T22:29:14.757Z,100.00
2022-10-11T22:31:43.522Z,100.00
2022-10-11T22:34:12.190Z,100.00
2022-10-11T22:36:40.584Z,100.00
2022-10-11T22:39:10.223Z,100.00
2022-10-11T22:41:40.133Z,100.00
2022-10-11T22:44:08.665Z,100.00
2022-10-11T22:46:37.519Z,100.00
2022-10-11T22:49:06.217Z,100.00
2022-10-11T22:51:34.746Z,100.00
2022-10-11T22:54:03.152Z,100.00
2022-10-11T22:56:31.655Z,100.00
2022-10-11T22:59:01.539Z,100.00
2022-10-11T23:01:29.979Z,100.00
2022-10-11T23:03:58.480Z,100.00
2022-10-11T23:06:27.261Z,100.00
2022-10-11T23:08:55.982Z,100.00
2022-10-11T23:11:24.608Z,100.00
2022-10-11T23:13:53.008Z,100.00
2022-10-11T23:16:22.794Z,100.00
2022-10-11T23:18:53.661Z,100.00
2022-10-11T23:21:22.619Z,100.00
2022-10-11T23:23:53.468Z,100.00
2022-10-11T23:26:22.283Z,100.00
2022-10-11T23:28:55.601Z,100.00
2022-10-11T23:31:25.420Z,100.00
2022-10-11T23:33:54.850Z,100.00
2022-10-11T23:36:25.556Z,100.00
2022-10-11T23:38:55.575Z,100.00
2022-10-11T23:41:25.422Z,100.00
2022-10-11T23:43:54.067Z,100.00
2022-10-11T23:46:22.784Z,100.00
2022-10-11T23:48:52.645Z,100.00
2022-10-11T23:51:21.302Z,100.00
2022-10-11T23:53:50.432Z,100.00
2022-10-11T23:56:18.874Z,100.00
2022-10-11T23:58:47.321Z,100.00
